Terminal Aerodrome Forecast
Issued by NWS

Current Version | Previous Version | Text Only | Print | Product List | Glossary On
Versions: 1 2 3 4 5 6 7 8 9 10 11 12 13 14 15 16
000
FTUS43 KDMX 200538
TAFFOD
TAF
KFOD 200538Z 2006/2106 14008KT P6SM SKC
     FM201000 16010KT P6SM SCT014 OVC030
     FM201200 16010KT 4SM BR VCTS OVC012CB
      TEMPO 2013/2016 2SM -RA BR OVC008
     FM201600 18013G19KT 5SM BR VCSH OVC012
     FM202100 22014KT P6SM BKN030 BKN100
     FM210000 29012KT P6SM BKN120=

USA.gov is the U.S. government's official web portal to all federal, state and local government web resources and services.